Time;durP1;ratioP1;P1;durP2;ratioP2;P2;SDS_P1;SDS_P2;PMS_P1;PMS_P2;Temp;Humidity;BMP_temperature;BMP_pressure;BME280_temperature;BME280_humidity;BME280_pressure;Samples;Min_cycle;Max_cycle;Signal;HPM_P1;HPM_P2
2021/06/10 00:01:01;;;;;;;20.10;18.38;;;15.40;99.90;;;;;;5091878;28;20044;-66
2021/06/10 00:03:27;;;;;;;20.33;18.42;;;15.40;99.90;;;;;;5092077;28;20051;-66
2021/06/10 00:05:53;;;;;;;20.77;19.08;;;15.40;99.90;;;;;;5091965;28;20079;-66
2021/06/10 00:08:18;;;;;;;21.75;19.85;;;15.40;99.90;;;;;;5073813;28;20457;-66
2021/06/10 00:10:46;;;;;;;21.20;19.33;;;15.30;99.90;;;;;;5089955;22;20052;-74
2021/06/10 00:13:14;;;;;;;21.17;19.27;;;15.30;99.90;;;;;;5071620;28;20047;-74
2021/06/10 00:15:40;;;;;;;22.30;20.27;;;15.20;99.90;;;;;;5071450;28;20040;-74
2021/06/10 00:18:07;;;;;;;21.50;19.55;;;15.10;99.90;;;;;;5053723;28;20114;-76
2021/06/10 00:20:36;;;;;;;20.33;18.52;;;15.00;99.90;;;;;;5070686;28;20107;-74
2021/06/10 00:23:04;;;;;;;19.92;18.13;;;14.90;99.90;;;;;;5071456;28;20060;-75
2021/06/10 00:25:29;;;;;;;22.08;20.17;;;14.90;99.90;;;;;;5071266;28;20170;-76
2021/06/10 00:27:57;;;;;;;20.60;18.83;;;14.90;99.90;;;;;;5071541;28;20119;-75
2021/06/10 00:30:23;;;;;;;20.25;18.48;;;14.80;99.90;;;;;;5053210;28;20032;-74
2021/06/10 00:32:50;;;;;;;20.85;19.05;;;14.80;99.90;;;;;;5071278;28;20051;-75
2021/06/10 00:35:18;;;;;;;21.88;19.90;;;14.70;99.90;;;;;;5071225;28;20044;-75
2021/06/10 00:37:44;;;;;;;20.67;18.88;;;14.70;99.90;;;;;;5053399;28;20035;-75
2021/06/10 00:40:11;;;;;;;20.30;18.60;;;14.60;99.90;;;;;;5071107;28;20441;-75
2021/06/10 00:42:37;;;;;;;19.65;17.95;;;14.60;99.90;;;;;;5071120;28;20040;-75
2021/06/10 00:45:06;;;;;;;21.95;20.00;;;14.60;99.90;;;;;;5071111;28;20496;-75
2021/06/10 00:47:32;;;;;;;19.52;17.77;;;14.50;99.90;;;;;;5071127;28;20044;-75
2021/06/10 00:49:57;;;;;;;19.55;17.85;;;14.50;99.90;;;;;;5070902;28;20047;-75
2021/06/10 00:52:23;;;;;;;21.25;19.40;;;14.40;99.90;;;;;;5070778;28;20040;-75
2021/06/10 00:54:49;;;;;;;21.80;19.90;;;14.40;99.90;;;;;;5070772;28;20375;-75
2021/06/10 00:57:15;;;;;;;21.60;19.73;;;14.40;99.90;;;;;;5070694;28;20112;-75
2021/06/10 00:59:40;;;;;;;19.98;18.23;;;14.40;99.90;;;;;;5070701;28;20120;-75
2021/06/10 01:02:06;;;;;;;22.40;20.42;;;14.30;99.90;;;;;;5070529;28;20078;-75
2021/06/10 01:04:32;;;;;;;21.33;19.42;;;14.30;99.90;;;;;;5070705;28;20488;-75
2021/06/10 01:07:07;;;;;;;22.42;20.30;;;14.30;99.90;;;;;;5070479;28;20516;-75
2021/06/10 01:09:37;;;;;;;21.73;19.80;;;14.20;99.90;;;;;;5070442;28;20048;-75
2021/06/10 01:12:23;;;;;;;21.27;19.38;;;14.10;99.90;;;;;;5070466;28;20489;-75
2021/06/10 01:15:01;;;;;;;21.25;19.30;;;14.20;99.90;;;;;;5070589;28;20128;-75
2021/06/10 01:17:29;;;;;;;19.98;18.27;;;14.10;99.90;;;;;;5070404;28;20040;-75
2021/06/10 01:20:08;;;;;;;18.83;17.08;;;14.10;99.90;;;;;;5070405;28;20074;-75
2021/06/10 01:22:41;;;;;;;14.27;13.07;;;14.00;99.90;;;;;;5070330;28;20052;-75
2021/06/10 01:25:38;;;;;;;12.02;11.10;;;13.90;99.90;;;;;;5070468;28;20063;-75
2021/06/10 01:28:13;;;;;;;11.80;10.88;;;13.80;99.90;;;;;;5070349;28;20118;-75
2021/06/10 01:30:45;;;;;;;10.32;9.43;;;13.70;99.90;;;;;;5052826;28;20040;-75
2021/06/10 01:33:14;;;;;;;;;;;13.60;99.90;;;;;;5052888;28;20379;-76
2021/06/10 01:35:45;;;;;;;7.57;7.00;;;13.60;99.90;;;;;;5070344;28;20268;-75
2021/06/10 01:38:12;;;;;;;7.35;6.75;;;13.50;99.90;;;;;;5070598;28;20288;-75
2021/06/10 01:40:40;;;;;;;7.30;6.70;;;13.40;99.90;;;;;;5070129;28;20041;-75
2021/06/10 01:43:07;;;;;;;8.93;8.13;;;13.30;99.90;;;;;;5070029;28;20481;-75
2021/06/10 01:45:34;;;;;;;9.77;9.02;;;13.30;99.90;;;;;;5070183;28;20123;-75
2021/06/10 01:48:01;;;;;;;10.65;9.80;;;13.20;99.90;;;;;;5052188;28;20040;-76
2021/06/10 01:50:28;;;;;;;11.13;10.23;;;13.20;99.90;;;;;;5052247;28;20040;-75
2021/06/10 01:52:55;;;;;;;10.98;9.98;;;13.30;99.90;;;;;;5052064;28;20460;-75
2021/06/10 01:55:24;;;;;;;12.20;11.10;;;13.30;99.90;;;;;;5070031;28;20039;-75
2021/06/10 01:57:52;;;;;;;11.75;10.75;;;13.30;99.90;;;;;;5070023;28;20112;-75
2021/06/10 02:00:19;;;;;;;14.45;13.27;;;13.30;99.90;;;;;;5070076;28;20041;-75
2021/06/10 02:02:47;;;;;;;15.05;13.65;;;13.30;99.90;;;;;;5069934;28;20036;-76
2021/06/10 02:05:14;;;;;;;16.40;15.00;;;13.20;99.90;;;;;;5070081;28;20046;-75
2021/06/10 02:07:42;;;;;;;18.65;16.98;;;13.20;99.90;;;;;;5052085;28;20119;-75
2021/06/10 02:10:10;;;;;;;18.30;16.60;;;13.20;99.90;;;;;;5052027;28;20041;-75
2021/06/10 02:12:46;;;;;;;19.65;17.83;;;13.20;99.90;;;;;;5053567;28;20052;-75
2021/06/10 02:15:13;;;;;;;20.27;18.48;;;13.20;99.90;;;;;;5052126;28;20500;-75
2021/06/10 02:17:41;;;;;;;22.67;20.60;;;13.20;99.90;;;;;;5069984;28;20074;-75
2021/06/10 02:20:13;;;;;;;22.75;20.55;;;13.20;99.90;;;;;;5070032;28;20036;-76
2021/06/10 02:22:39;;;;;;;24.85;22.45;;;13.20;99.90;;;;;;5069897;28;20098;-75
2021/06/10 02:25:05;;;;;;;24.98;22.42;;;13.10;99.90;;;;;;5069915;28;20041;-75
2021/06/10 02:27:31;;;;;;;23.52;21.27;;;13.20;99.90;;;;;;5069739;28;20043;-75
2021/06/10 02:29:57;;;;;;;23.60;21.45;;;13.10;99.90;;;;;;5051749;28;20045;-75
2021/06/10 02:32:23;;;;;;;23.88;21.48;;;13.10;99.90;;;;;;5069722;28;20047;-76
2021/06/10 02:34:49;;;;;;;22.73;20.52;;;13.10;99.90;;;;;;5069764;28;20037;-76
2021/06/10 02:37:21;;;;;;;23.63;21.42;;;13.10;99.90;;;;;;5069579;28;20044;-76
2021/06/10 02:39:49;;;;;;;22.20;20.08;;;13.00;99.90;;;;;;5069677;28;20119;-76
2021/06/10 02:42:16;;;;;;;20.15;18.17;;;13.00;99.90;;;;;;5069485;28;20040;-76
2021/06/10 02:44:44;;;;;;;20.65;18.75;;;13.00;99.90;;;;;;5073317;28;20060;-76
2021/06/10 02:47:11;;;;;;;20.90;19.00;;;13.00;99.90;;;;;;5073214;28;20033;-75
2021/06/10 02:49:40;;;;;;;21.65;19.45;;;13.00;99.90;;;;;;5073096;28;20062;-75
2021/06/10 02:52:07;;;;;;;20.77;18.77;;;12.90;99.90;;;;;;5073245;28;20635;-76
2021/06/10 02:54:35;;;;;;;19.65;17.88;;;12.90;99.90;;;;;;5072977;28;20132;-76
2021/06/10 02:57:04;;;;;;;19.08;17.27;;;12.90;99.90;;;;;;5073100;28;20607;-76
2021/06/10 02:59:31;;;;;;;20.48;17.15;;;12.90;99.90;;;;;;5073086;28;20382;-76
2021/06/10 03:01:58;;;;;;;17.70;16.08;;;12.90;99.90;;;;;;5072945;28;20079;-76
2021/06/10 03:04:43;;;;;;;18.48;16.85;;;12.90;99.90;;;;;;5077385;28;20040;-76
2021/06/10 03:07:17;;;;;;;20.10;18.10;;;12.90;99.90;;;;;;5054968;28;20136;-76
2021/06/10 03:09:45;;;;;;;21.77;19.58;;;12.80;99.90;;;;;;5072626;28;20044;-75
2021/06/10 03:12:12;;;;;;;22.73;20.45;;;12.80;99.90;;;;;;5072743;28;20542;-76
2021/06/10 03:14:41;;;;;;;24.05;21.33;;;12.80;99.90;;;;;;5072546;28;20371;-76
2021/06/10 03:17:08;;;;;;;22.48;20.27;;;12.70;99.90;;;;;;5072517;28;20374;-76
2021/06/10 03:19:35;;;;;;;20.73;18.73;;;12.70;99.90;;;;;;5072279;28;20033;-75
2021/06/10 03:22:02;;;;;;;20.67;18.67;;;12.70;99.90;;;;;;5072198;28;20336;-76
2021/06/10 03:24:28;;;;;;;20.25;18.35;;;12.60;99.90;;;;;;5071864;28;20033;-76
2021/06/10 03:26:55;;;;;;;20.10;18.20;;;12.60;99.90;;;;;;5072023;28;20068;-75
2021/06/10 03:29:22;;;;;;;19.63;17.77;;;12.60;99.90;;;;;;5054222;28;20032;-76
2021/06/10 03:31:48;;;;;;;20.90;18.70;;;12.60;99.90;;;;;;5054353;28;20461;-76
2021/06/10 03:34:17;;;;;;;19.80;17.80;;;12.50;99.90;;;;;;5072476;28;20025;-76
2021/06/10 03:36:43;;;;;;;20.02;18.15;;;12.50;99.90;;;;;;5072338;28;20037;-76
2021/06/10 03:39:10;;;;;;;20.08;18.08;;;12.50;99.90;;;;;;5072175;28;20502;-75
2021/06/10 03:41:36;;;;;;;20.45;18.40;;;12.40;99.90;;;;;;5054129;28;20039;-75
2021/06/10 03:44:07;;;;;;;17.83;16.13;;;12.20;99.90;;;;;;5054487;28;20067;-75
2021/06/10 03:46:34;;;;;;;12.88;11.60;;;12.00;99.90;;;;;;5072213;28;20086;-75
2021/06/10 03:49:00;;;;;;;15.60;14.05;;;12.10;99.90;;;;;;5071978;28;20037;-75
2021/06/10 03:51:25;;;;;;;15.95;14.45;;;12.20;99.90;;;;;;5072059;28;20482;-75
2021/06/10 03:53:54;;;;;;;16.98;15.27;;;12.30;99.90;;;;;;5071354;28;20540;-75
2021/06/10 03:56:21;;;;;;;16.95;15.35;;;12.30;99.90;;;;;;5071557;28;20040;-75
2021/06/10 03:58:47;;;;;;;18.10;16.33;;;12.40;99.90;;;;;;5071811;28;20107;-75
2021/06/10 04:01:13;;;;;;;20.23;17.95;;;12.40;99.90;;;;;;5071742;28;20036;-75
2021/06/10 04:03:39;;;;;;;18.85;16.95;;;12.40;99.90;;;;;;5053798;28;20040;-76
2021/06/10 04:06:06;;;;;;;19.75;17.77;;;12.50;99.90;;;;;;5071753;28;20048;-75
2021/06/10 04:08:43;;;;;;;22.92;20.63;;;12.60;99.90;;;;;;5071659;28;20456;-75
2021/06/10 04:11:17;;;;;;;22.10;20.00;;;12.70;99.90;;;;;;5071736;28;20469;-75
2021/06/10 04:13:42;;;;;;;22.58;20.17;;;12.70;99.90;;;;;;5071563;28;20063;-75
2021/06/10 04:16:24;;;;;;;21.23;19.10;;;12.70;99.90;;;;;;5057610;28;20033;-75
2021/06/10 04:18:50;;;;;;;20.10;18.13;;;12.80;99.90;;;;;;5071412;28;20040;-75
2021/06/10 04:21:17;;;;;;;20.13;18.17;;;12.80;99.90;;;;;;5071316;28;20455;-75
2021/06/10 04:23:44;;;;;;;19.20;17.30;;;12.90;99.90;;;;;;5071478;28;20165;-75
2021/06/10 04:26:09;;;;;;;19.27;17.27;;;13.00;99.90;;;;;;5071225;28;20108;-75
2021/06/10 04:28:41;;;;;;;19.05;17.25;;;13.10;99.90;;;;;;5071364;28;20033;-75
2021/06/10 04:31:07;;;;;;;19.10;17.35;;;13.10;99.90;;;;;;5053156;28;20044;-75
2021/06/10 04:33:34;;;;;;;20.70;18.45;;;13.20;99.90;;;;;;5071097;28;20123;-73
2021/06/10 04:36:00;;;;;;;21.75;19.88;;;13.20;99.90;;;;;;5053235;28;20041;-75
2021/06/10 04:38:33;;;;;;;22.10;19.95;;;13.20;99.90;;;;;;5071298;28;20067;-75
2021/06/10 04:40:59;;;;;;;20.90;19.00;;;13.30;99.90;;;;;;5070822;28;20071;-75
2021/06/10 04:43:32;;;;;;;21.08;19.15;;;13.30;99.90;;;;;;5071102;28;20119;-75
2021/06/10 04:45:59;;;;;;;19.55;17.80;;;13.40;99.90;;;;;;5070759;28;20474;-75
2021/06/10 04:48:25;;;;;;;20.55;18.65;;;13.40;99.90;;;;;;5070987;28;20064;-75
2021/06/10 04:50:52;;;;;;;21.33;19.33;;;13.50;99.90;;;;;;5070914;28;20043;-74
2021/06/10 04:53:34;;;;;;;21.13;19.17;;;13.50;99.90;;;;;;5070833;28;20119;-74
2021/06/10 04:56:04;;;;;;;21.67;19.77;;;13.70;99.90;;;;;;5070732;28;20102;-75
2021/06/10 04:58:34;;;;;;;25.63;22.80;;;13.70;99.90;;;;;;5070588;28;20036;-75
2021/06/10 05:01:00;;;;;;;26.75;24.20;;;13.80;99.90;;;;;;5070574;28;20478;-75
2021/06/10 05:03:25;;;;;;;28.80;26.02;;;13.90;99.90;;;;;;5070625;28;20037;-76
2021/06/10 05:05:53;;;;;;;25.98;23.42;;;14.00;99.90;;;;;;5070224;28;20039;-76
2021/06/10 05:08:19;;;;;;;25.40;22.90;;;14.10;99.90;;;;;;5070604;28;20486;-73
2021/06/10 05:10:45;;;;;;;24.95;22.75;;;14.20;99.90;;;;;;5052431;28;20430;-76
2021/06/10 05:13:13;;;;;;;26.35;23.85;;;14.30;99.90;;;;;;5070476;28;20128;-75
2021/06/10 05:15:40;;;;;;;25.08;22.77;;;14.40;99.90;;;;;;5052853;28;20044;-76
2021/06/10 05:18:05;;;;;;;27.00;24.40;;;14.50;99.90;;;;;;5070457;28;20415;-75
2021/06/10 05:20:32;;;;;;;28.92;26.13;;;14.60;99.90;;;;;;5070313;28;20029;-76
2021/06/10 05:22:58;;;;;;;29.38;26.52;;;14.70;99.90;;;;;;5070215;28;20036;-76
2021/06/10 05:25:24;;;;;;;29.35;26.35;;;14.80;99.90;;;;;;5070283;28;20539;-75
2021/06/10 05:27:50;;;;;;;30.95;27.85;;;14.90;99.90;;;;;;5052246;28;20044;-75
2021/06/10 05:30:16;;;;;;;31.98;28.63;;;15.00;99.90;;;;;;5070353;28;20115;-76
2021/06/10 05:32:42;;;;;;;31.77;27.52;;;15.10;99.90;;;;;;5070221;28;20044;-75
2021/06/10 05:35:08;;;;;;;28.58;25.60;;;15.20;99.90;;;;;;5070286;28;20048;-76
2021/06/10 05:37:36;;;;;;;29.85;26.83;;;15.30;99.90;;;;;;5070277;28;20094;-76
2021/06/10 05:40:04;;;;;;;32.70;29.20;;;15.40;99.90;;;;;;5052291;28;20433;-76
2021/06/10 05:42:30;;;;;;;35.15;31.48;;;15.60;99.90;;;;;;5070027;28;20045;-73
2021/06/10 05:44:56;;;;;;;31.23;27.85;;;15.70;99.90;;;;;;5052216;28;20036;-73
2021/06/10 05:47:24;;;;;;;30.08;27.08;;;16.20;99.90;;;;;;5070027;28;20127;-73
2021/06/10 05:49:50;;;;;;;26.88;24.30;;;17.90;99.90;;;;;;5070132;28;20543;-73
2021/06/10 05:52:15;;;;;;;27.35;24.65;;;19.80;99.90;;;;;;5070007;28;20131;-73
2021/06/10 05:54:41;;;;;;;23.58;21.10;;;21.60;98.10;;;;;;5052061;28;20066;-74
2021/06/10 05:57:08;;;;;;;24.17;21.88;;;22.90;95.70;;;;;;5069901;28;20488;-74
2021/06/10 05:59:36;;;;;;;21.50;19.52;;;24.40;93.70;;;;;;5052467;28;20474;-74
2021/06/10 06:02:02;;;;;;;21.75;19.75;;;25.60;91.50;;;;;;5069855;28;20086;-74
2021/06/10 06:04:29;;;;;;;19.67;17.77;;;26.30;83.80;;;;;;5070066;28;20115;-74
2021/06/10 06:06:55;;;;;;;19.02;17.20;;;27.40;86.20;;;;;;5051946;28;20816;-74
2021/06/10 06:09:21;;;;;;;18.73;17.13;;;28.00;80.00;;;;;;5069676;28;20057;-74
2021/06/10 06:11:50;;;;;;;18.10;16.48;;;28.60;75.20;;;;;;5052232;28;20045;-74
2021/06/10 06:14:18;;;;;;;15.63;14.05;;;29.00;71.40;;;;;;5051938;28;20070;-74
2021/06/10 06:16:44;;;;;;;16.10;14.60;;;29.50;68.20;;;;;;5051846;28;20067;-74
2021/06/10 06:19:12;;;;;;;15.35;14.05;;;30.00;66.20;;;;;;5073030;28;20037;-75
2021/06/10 06:21:44;;;;;;;15.93;14.45;;;30.40;64.30;;;;;;5073549;28;20040;-75
2021/06/10 06:24:11;;;;;;;14.25;13.07;;;30.70;58.40;;;;;;5073953;28;20496;-75
2021/06/10 06:26:37;;;;;;;13.27;11.98;;;31.10;58.00;;;;;;5055643;28;20029;-75
2021/06/10 06:29:03;;;;;;;13.40;12.30;;;31.20;54.00;;;;;;5073535;28;20036;-75
2021/06/10 06:31:31;;;;;;;14.20;12.90;;;31.40;53.40;;;;;;5073419;28;20036;-74
2021/06/10 06:33:59;;;;;;;13.57;12.40;;;31.60;53.70;;;;;;5073933;28;20036;-75
2021/06/10 06:36:25;;;;;;;13.90;12.60;;;31.80;52.60;;;;;;5073216;28;20466;-75
2021/06/10 06:38:56;;;;;;;14.05;12.85;;;31.80;51.00;;;;;;5073519;28;20048;-75
2021/06/10 06:41:22;;;;;;;13.23;12.05;;;31.80;51.10;;;;;;5073295;28;20123;-75
2021/06/10 06:43:50;;;;;;;11.40;10.40;;;32.40;51.60;;;;;;5073212;28;20044;-75
2021/06/10 06:46:16;;;;;;;12.07;10.65;;;32.60;50.30;;;;;;5073304;28;20709;-75
2021/06/10 06:48:42;;;;;;;10.40;9.50;;;32.90;48.70;;;;;;5073098;28;20079;-75
2021/06/10 06:51:09;;;;;;;10.82;9.85;;;32.90;47.30;;;;;;5073276;28;20072;-75
2021/06/10 06:53:35;;;;;;;9.50;8.60;;;32.70;45.80;;;;;;5073019;28;20215;-75
2021/06/10 06:56:03;;;;;;;10.50;9.38;;;32.70;45.60;;;;;;5073043;28;20075;-75
2021/06/10 06:58:30;;;;;;;11.13;10.10;;;32.80;44.40;;;;;;5072863;28;20047;-75
2021/06/10 07:01:11;;;;;;;;;;;33.00;45.20;;;;;;5073543;28;20067;-75
2021/06/10 07:03:36;;;;;;;9.63;8.85;;;33.00;46.40;;;;;;5055319;28;19978;-75
2021/06/10 07:06:04;;;;;;;9.85;8.95;;;32.90;43.10;;;;;;5073158;28;20123;-75
2021/06/10 07:08:38;;;;;;;9.68;8.93;;;33.00;44.50;;;;;;5072909;28;20028;-75
2021/06/10 07:11:04;;;;;;;9.90;9.00;;;33.10;43.40;;;;;;5054687;28;20586;-75
2021/06/10 07:13:31;;;;;;;8.13;7.53;;;32.80;43.20;;;;;;5072728;28;20053;-74
2021/06/10 07:15:57;;;;;;;8.65;7.85;;;32.90;42.70;;;;;;5072716;28;20100;-74
2021/06/10 07:18:23;;;;;;;8.27;7.55;;;33.30;44.00;;;;;;5072611;28;20123;-74
2021/06/10 07:20:49;;;;;;;9.95;9.05;;;33.50;43.30;;;;;;5072697;28;20045;-74
2021/06/10 07:23:15;;;;;;;10.20;9.30;;;33.30;42.80;;;;;;5072421;28;20044;-75
2021/06/10 07:25:41;;;;;;;9.60;8.70;;;33.50;43.20;;;;;;5072667;28;20475;-74
2021/06/10 07:28:07;;;;;;;9.10;8.20;;;33.20;42.30;;;;;;5072509;28;20041;-75
2021/06/10 07:30:36;;;;;;;10.18;9.23;;;33.20;42.60;;;;;;5072265;28;20098;-75
2021/06/10 07:33:05;;;;;;;9.52;8.73;;;33.00;42.30;;;;;;5072361;28;20079;-74
2021/06/10 07:35:35;;;;;;;10.10;9.30;;;33.00;42.00;;;;;;5072431;28;20040;-75
2021/06/10 07:38:04;;;;;;;9.57;8.77;;;32.80;42.10;;;;;;5072299;28;20067;-75
2021/06/10 07:40:31;;;;;;;9.48;8.57;;;33.00;42.50;;;;;;5072374;28;20123;-75
2021/06/10 07:42:58;;;;;;;8.23;7.43;;;33.00;41.90;;;;;;5072117;28;20087;-75
2021/06/10 07:45:29;;;;;;;8.32;7.63;;;33.20;41.70;;;;;;5072223;28;20051;-75
2021/06/10 07:47:55;;;;;;;9.00;8.30;;;33.00;40.80;;;;;;5054370;28;20457;-76
2021/06/10 07:50:22;;;;;;;8.85;8.10;;;33.10;41.00;;;;;;5073052;28;20428;-75
2021/06/10 07:52:48;;;;;;;8.73;7.97;;;33.20;41.20;;;;;;5054025;28;20040;-75
2021/06/10 07:55:14;;;;;;;7.93;7.22;;;33.20;40.40;;;;;;5072078;28;20033;-76
2021/06/10 07:57:40;;;;;;;8.70;8.00;;;33.30;40.50;;;;;;5071829;28;20371;-75
2021/06/10 08:00:07;;;;;;;8.95;8.15;;;33.10;41.30;;;;;;5072117;28;20470;-76
2021/06/10 08:02:32;;;;;;;8.98;8.23;;;32.40;41.10;;;;;;5071931;28;20067;-76
2021/06/10 08:04:59;;;;;;;9.52;8.73;;;32.30;42.10;;;;;;5053815;28;20474;-75
2021/06/10 08:07:25;;;;;;;9.02;8.23;;;31.90;42.20;;;;;;5071794;28;20064;-75
2021/06/10 08:09:50;;;;;;;8.40;7.70;;;30.90;43.30;;;;;;5071565;28;20087;-75
2021/06/10 08:12:16;;;;;;;7.78;7.07;;;30.60;45.10;;;;;;5071622;28;20048;-75
2021/06/10 08:14:44;;;;;;;8.52;7.60;;;30.00;45.70;;;;;;5071555;28;20047;-75
2021/06/10 08:17:10;;;;;;;8.82;8.02;;;28.90;45.20;;;;;;5071693;28;20040;-75
2021/06/10 08:19:36;;;;;;;8.80;6.55;;;28.70;47.20;;;;;;5053534;28;20119;-75
2021/06/10 08:22:02;;;;;;;7.03;6.30;;;28.40;48.50;;;;;;5071494;28;20098;-75
2021/06/10 08:24:27;;;;;;;9.63;8.82;;;28.20;49.60;;;;;;5071345;28;20109;-75
2021/06/10 08:26:53;;;;;;;8.38;7.75;;;27.80;49.00;;;;;;5071842;28;20041;-75
2021/06/10 08:29:19;;;;;;;8.63;7.78;;;27.50;49.40;;;;;;5053366;28;20040;-75
2021/06/10 08:31:46;;;;;;;8.57;7.72;;;27.20;50.40;;;;;;5071232;28;20037;-75
2021/06/10 08:34:12;;;;;;;8.45;7.65;;;27.00;51.00;;;;;;5071158;28;20199;-75
2021/06/10 08:36:38;;;;;;;8.52;7.82;;;26.60;51.40;;;;;;5053313;28;20151;-75
2021/06/10 08:39:05;;;;;;;8.38;7.55;;;26.60;51.10;;;;;;5071032;28;20396;-75
2021/06/10 08:41:33;;;;;;;9.15;8.25;;;26.50;51.50;;;;;;5070585;28;20036;-75
2021/06/10 08:44:00;;;;;;;8.25;7.47;;;26.40;51.70;;;;;;5070835;28;20044;-75
2021/06/10 08:46:29;;;;;;;7.85;7.15;;;26.30;52.20;;;;;;5071255;28;20586;-75
2021/06/10 08:48:55;;;;;;;9.43;8.52;;;26.20;52.20;;;;;;5070931;28;20063;-75
2021/06/10 08:51:21;;;;;;;8.95;8.05;;;26.10;52.50;;;;;;5070854;28;20469;-75
2021/06/10 08:53:47;;;;;;;8.55;7.85;;;26.00;53.40;;;;;;5071150;28;20120;-75
2021/06/10 08:56:17;;;;;;;8.50;7.68;;;25.80;51.00;;;;;;5070684;28;20059;-74
2021/06/10 08:58:43;;;;;;;8.70;7.90;;;25.80;53.20;;;;;;5052925;28;20051;-74
2021/06/10 09:01:13;;;;;;;8.55;7.75;;;25.70;53.40;;;;;;5070645;28;20115;-74
2021/06/10 09:03:40;;;;;;;8.20;6.30;;;25.60;53.70;;;;;;5070883;28;20044;-74
2021/06/10 09:06:17;;;;;;;5.90;5.40;;;25.70;53.50;;;;;;5070591;28;20278;-75
2021/06/10 09:08:46;;;;;;;7.28;6.60;;;25.70;53.10;;;;;;5070655;28;20393;-75
2021/06/10 09:11:16;;;;;;;8.73;7.75;;;25.50;50.50;;;;;;5070398;28;20048;-75
2021/06/10 09:13:56;;;;;;;8.55;7.22;;;25.40;51.60;;;;;;5070517;28;20463;-75
2021/06/10 09:16:27;;;;;;;7.57;6.88;;;25.50;52.80;;;;;;5052735;28;20389;-76
2021/06/10 09:19:17;;;;;;;6.25;5.65;;;25.50;53.50;;;;;;5041649;28;20174;-75
2021/06/10 09:21:58;;;;;;;6.88;5.15;;;25.60;53.50;;;;;;5052500;28;20044;-76
2021/06/10 09:24:31;;;;;;;8.07;6.50;;;25.60;54.80;;;;;;5070397;28;20595;-75
2021/06/10 09:27:06;;;;;;;7.10;5.60;;;25.50;53.40;;;;;;5052494;28;20609;-75
2021/06/10 09:29:40;;;;;;;7.78;7.07;;;25.50;52.80;;;;;;5052353;28;20045;-75
2021/06/10 09:32:22;;;;;;;8.02;7.15;;;25.30;53.40;;;;;;5070400;28;20036;-75
2021/06/10 09:34:49;;;;;;;7.93;7.18;;;25.40;53.80;;;;;;5070336;28;20040;-75
2021/06/10 09:37:34;;;;;;;8.48;7.50;;;25.50;56.30;;;;;;5052447;28;20482;-75
2021/06/10 09:40:08;;;;;;;6.57;5.88;;;25.30;54.90;;;;;;5070197;28;20036;-75
2021/06/10 09:42:42;;;;;;;10.32;8.02;;;25.30;55.90;;;;;;5070179;28;20113;-75
2021/06/10 09:45:17;;;;;;;8.80;7.50;;;25.10;55.90;;;;;;5070085;28;20103;-74
2021/06/10 09:47:50;;;;;;;8.40;7.50;;;25.40;57.00;;;;;;5070148;28;20091;-75
2021/06/10 09:50:30;;;;;;;8.57;7.45;;;25.40;56.20;;;;;;5070094;28;20041;-75
2021/06/10 09:52:57;;;;;;;8.50;7.70;;;25.20;57.10;;;;;;5071256;28;20048;-75
2021/06/10 09:55:27;;;;;;;9.27;8.30;;;25.30;57.60;;;;;;5073980;28;20040;-74
2021/06/10 09:57:55;;;;;;;8.75;6.85;;;25.40;56.80;;;;;;5074283;28;20045;-74
2021/06/10 10:00:26;;;;;;;7.63;6.97;;;25.40;57.00;;;;;;5073956;28;20064;-75
2021/06/10 10:02:52;;;;;;;8.60;7.67;;;25.40;58.80;;;;;;5074159;28;20040;-74
2021/06/10 10:05:25;;;;;;;9.52;8.52;;;25.50;58.10;;;;;;5074021;28;20489;-74
2021/06/10 10:07:56;;;;;;;8.07;7.25;;;25.60;57.30;;;;;;5057119;28;20139;-75
2021/06/10 10:10:24;;;;;;;8.13;7.43;;;25.70;57.20;;;;;;5073677;28;20131;-74
2021/06/10 10:12:52;;;;;;;9.13;8.27;;;25.50;57.40;;;;;;5055980;28;20443;-74
2021/06/10 10:15:18;;;;;;;8.23;7.43;;;25.40;57.90;;;;;;5073779;28;20040;-74
2021/06/10 10:17:47;;;;;;;7.75;6.95;;;25.40;58.90;;;;;;5074037;28;20055;-73
2021/06/10 10:20:15;;;;;;;8.65;7.60;;;25.50;58.40;;;;;;5055887;28;20290;-74
2021/06/10 10:22:43;;;;;;;9.43;8.63;;;25.30;58.20;;;;;;5073704;28;20086;-74
2021/06/10 10:25:09;;;;;;;11.20;10.20;;;25.30;58.20;;;;;;5073563;28;20052;-74
2021/06/10 10:27:36;;;;;;;10.60;9.70;;;25.30;58.40;;;;;;5073654;28;20042;-66
2021/06/10 10:30:03;;;;;;;9.70;8.70;;;25.20;58.40;;;;;;5073517;28;20452;-66
2021/06/10 10:32:29;;;;;;;9.52;7.95;;;25.10;59.50;;;;;;5073458;28;20123;-66
2021/06/10 10:35:26;;;;;;;9.32;8.43;;;25.30;59.10;;;;;;5073631;28;20044;-66
2021/06/10 10:37:53;;;;;;;9.05;8.25;;;25.50;60.30;;;;;;5055589;28;20480;-66
2021/06/10 10:40:25;;;;;;;9.23;8.32;;;25.50;60.00;;;;;;5073372;28;20048;-66
2021/06/10 10:42:55;;;;;;;7.90;7.20;;;25.60;59.60;;;;;;5073396;28;20095;-66
2021/06/10 10:45:27;;;;;;;8.52;7.70;;;25.60;59.20;;;;;;5073260;28;20413;-66
2021/06/10 10:50:39;;;;;;;7.32;6.68;;;25.60;59.50;;;;;;5073330;28;20048;-67
2021/06/10 10:53:22;;;;;;;7.97;7.28;;;25.70;59.90;;;;;;5073250;28;20162;-67
2021/06/10 10:56:05;;;;;;;9.30;8.20;;;25.90;59.00;;;;;;5072978;28;20040;-67
2021/06/10 10:58:32;;;;;;;7.25;6.30;;;25.90;59.30;;;;;;5055530;28;20044;-68
2021/06/10 11:00:59;;;;;;;6.57;5.28;;;25.90;58.20;;;;;;5072800;28;20512;-67
2021/06/10 11:03:39;;;;;;;6.43;5.25;;;25.80;57.60;;;;;;5072638;28;20080;-67
2021/06/10 11:06:31;;;;;;;5.35;4.85;;;25.70;55.20;;;;;;5055396;28;20040;-67
2021/06/10 11:09:12;;;;;;;7.68;5.28;;;25.80;56.70;;;;;;5060330;28;20163;-68
2021/06/10 11:11:59;;;;;;;5.30;4.17;;;25.80;55.80;;;;;;5072760;28;20543;-67
2021/06/10 11:14:39;;;;;;;5.43;2.90;;;26.10;58.40;;;;;;5072936;28;20447;-67
2021/06/10 11:17:32;;;;;;;7.05;3.85;;;26.20;57.10;;;;;;5055027;28;20556;-67
2021/06/10 11:20:03;;;;;;;3.67;2.63;;;26.30;56.00;;;;;;5072555;28;20151;-67
2021/06/10 11:22:40;;;;;;;5.95;3.42;;;26.30;53.40;;;;;;5072642;28;20045;-67
2021/06/10 11:25:08;;;;;;;3.40;3.00;;;26.30;53.40;;;;;;5054819;28;20117;-68
2021/06/10 11:27:40;;;;;;;3.15;2.83;;;26.30;55.80;;;;;;5054553;28;20064;-67
2021/06/10 11:30:20;;;;;;;6.25;3.50;;;26.30;55.80;;;;;;5054620;28;20036;-67
2021/06/10 11:33:11;;;;;;;3.33;3.00;;;26.40;55.60;;;;;;5072341;28;20159;-67
2021/06/10 11:35:47;;;;;;;3.13;2.90;;;26.60;55.40;;;;;;5072491;28;20043;-67
2021/06/10 11:38:30;;;;;;;2.65;2.38;;;26.70;54.10;;;;;;5072281;28;20047;-67
2021/06/10 11:41:13;;;;;;;3.05;2.60;;;26.90;54.70;;;;;;5072466;28;20493;-67
2021/06/10 11:43:49;;;;;;;3.15;2.50;;;27.10;54.60;;;;;;5072318;28;20036;-67
2021/06/10 11:46:16;;;;;;;5.13;3.58;;;27.10;53.70;;;;;;5072211;28;20036;-67
2021/06/10 11:48:44;;;;;;;3.35;3.05;;;27.00;50.20;;;;;;5072055;28;20040;-67
2021/06/10 11:51:30;;;;;;;4.00;3.22;;;27.10;52.10;;;;;;5054086;28;20049;-67
2021/06/10 11:54:18;;;;;;;4.15;3.05;;;27.20;49.40;;;;;;5053964;28;20043;-68
2021/06/10 11:56:47;;;;;;;4.15;2.95;;;27.20;52.10;;;;;;5071397;28;20041;-67
2021/06/10 11:59:16;;;;;;;3.85;3.45;;;27.40;52.80;;;;;;5071874;28;20065;-67
2021/06/10 12:01:57;;;;;;;3.20;2.92;;;27.50;51.70;;;;;;5053862;28;20053;-67
2021/06/10 12:04:34;;;;;;;4.55;3.42;;;27.60;53.00;;;;;;5072004;28;20041;-67
2021/06/10 12:07:08;;;;;;;3.80;3.45;;;27.90;53.70;;;;;;5071638;28;20040;-67
2021/06/10 12:09:34;;;;;;;3.20;2.85;;;28.10;51.80;;;;;;5071620;28;20060;-67
2021/06/10 12:12:00;;;;;;;4.10;3.70;;;28.10;52.70;;;;;;5071432;28;20437;-67
2021/06/10 12:14:37;;;;;;;7.05;4.07;;;28.10;51.50;;;;;;5071646;28;20094;-68
2021/06/10 12:17:03;;;;;;;4.30;3.90;;;28.10;51.10;;;;;;5070801;28;20045;-67
2021/06/10 12:19:31;;;;;;;3.80;3.40;;;27.70;49.80;;;;;;5071521;28;20558;-67
2021/06/10 12:22:00;;;;;;;5.05;3.30;;;27.90;52.20;;;;;;5071847;28;20075;-67
2021/06/10 12:24:41;;;;;;;4.70;3.33;;;27.90;51.50;;;;;;5075948;22;20498;-68
2021/06/10 12:27:16;;;;;;;3.97;2.60;;;28.00;51.90;;;;;;5091492;28;20040;-68
2021/06/10 12:29:50;;;;;;;3.70;2.50;;;28.00;50.80;;;;;;5091740;28;20048;-68
2021/06/10 12:32:32;;;;;;;4.13;2.70;;;28.00;52.30;;;;;;5091157;28;20478;-68
2021/06/10 12:34:59;;;;;;;3.75;3.30;;;28.00;52.40;;;;;;5090275;28;20439;-68
2021/06/10 12:37:25;;;;;;;7.85;2.53;;;28.10;50.10;;;;;;5091164;28;20089;-68
2021/06/10 12:39:52;;;;;;;3.58;3.00;;;28.20;52.50;;;;;;5091434;28;20032;-68
2021/06/10 12:42:21;;;;;;;4.50;2.90;;;28.30;52.80;;;;;;5089924;28;20051;-68
2021/06/10 12:44:47;;;;;;;3.40;2.45;;;28.30;48.00;;;;;;5089590;28;20497;-68
2021/06/10 12:47:18;;;;;;;4.28;3.05;;;28.20;47.80;;;;;;5091036;28;20040;-68
2021/06/10 12:49:47;;;;;;;3.28;2.38;;;28.00;44.70;;;;;;5091485;28;20074;-68